Time;durP1;ratioP1;P1;durP2;ratioP2;P2;SDS_P1;SDS_P2;PMS_P1;PMS_P2;Temp;Humidity;BMP_temperature;BMP_pressure;BME280_temperature;BME280_humidity;BME280_pressure;Samples;Min_cycle;Max_cycle;Signal;HPM_P1;HPM_P2
2022/08/26 00:00:26;;;;;;;15.40;11.60;;;21.30;32.00;;;;;;5107852;27;20479;-67
2022/08/26 00:02:53;;;;;;;17.33;13.27;;;21.30;32.00;;;;;;5108559;28;20451;-68
2022/08/26 00:05:21;;;;;;;14.40;11.50;;;21.30;31.70;;;;;;5109684;28;20466;-67
2022/08/26 00:07:48;;;;;;;21.27;13.93;;;21.20;32.10;;;;;;5106074;27;20456;-67
2022/08/26 00:10:16;;;;;;;17.37;12.90;;;21.20;32.20;;;;;;5105513;28;20475;-67
2022/08/26 00:12:42;;;;;;;18.10;12.20;;;21.20;32.10;;;;;;5109548;28;20565;-67
2022/08/26 00:15:12;;;;;;;18.13;12.27;;;21.20;31.90;;;;;;5109488;28;20452;-67
2022/08/26 00:17:39;;;;;;;16.63;12.93;;;21.10;32.20;;;;;;5107845;27;20518;-67
2022/08/26 00:20:09;;;;;;;17.10;13.33;;;21.20;31.90;;;;;;5109622;28;20471;-67
2022/08/26 00:22:37;;;;;;;15.03;12.67;;;21.20;31.80;;;;;;5109196;28;20452;-67
2022/08/26 00:25:04;;;;;;;17.00;13.40;;;21.20;31.70;;;;;;5117445;27;20981;-68
2022/08/26 00:27:32;;;;;;;16.63;13.33;;;21.20;32.30;;;;;;5111740;27;20452;-67
2022/08/26 00:29:59;;;;;;;16.27;12.60;;;21.10;32.30;;;;;;5109359;27;20471;-67
2022/08/26 00:32:26;;;;;;;19.13;13.27;;;21.10;32.40;;;;;;5105607;28;20468;-67
2022/08/26 00:34:53;;;;;;;20.37;13.90;;;21.20;32.30;;;;;;5111501;28;20462;-67
2022/08/26 00:37:19;;;;;;;17.90;13.17;;;21.10;32.70;;;;;;5110332;28;20482;-67
2022/08/26 00:39:47;;;;;;;15.20;13.27;;;21.10;32.70;;;;;;5113586;22;20509;-62
2022/08/26 00:42:14;;;;;;;13.90;12.30;;;21.00;33.00;;;;;;5097586;28;20464;-62
2022/08/26 00:44:41;;;;;;;16.13;12.23;;;21.00;33.10;;;;;;5103401;28;20459;-62
2022/08/26 00:47:24;;;;;;;16.97;13.53;;;21.00;33.10;;;;;;5098337;28;20532;-62
2022/08/26 00:49:51;;;;;;;20.83;12.53;;;21.00;32.90;;;;;;5099131;28;20468;-62
2022/08/26 00:52:21;;;;;;;15.10;11.60;;;20.90;33.20;;;;;;5081089;28;20456;-62
2022/08/26 00:54:55;;;;;;;15.50;11.47;;;20.90;33.10;;;;;;5084665;28;20456;-62
2022/08/26 00:57:22;;;;;;;18.47;11.00;;;20.90;33.30;;;;;;5082502;28;20545;-62
2022/08/26 00:59:54;;;;;;;12.90;10.30;;;20.90;33.40;;;;;;5080321;28;20505;-62
2022/08/26 01:02:21;;;;;;;13.23;10.30;;;20.90;33.30;;;;;;5083668;28;20468;-62
2022/08/26 01:04:49;;;;;;;13.50;9.63;;;20.80;33.10;;;;;;5079394;28;20979;-62
2022/08/26 01:07:16;;;;;;;10.80;9.47;;;20.80;33.30;;;;;;5082019;28;20644;-62
2022/08/26 01:09:43;;;;;;;13.97;11.10;;;20.80;33.40;;;;;;5086504;28;20476;-62
2022/08/26 01:12:12;;;;;;;10.77;9.30;;;20.80;33.40;;;;;;5081937;28;20456;-63
2022/08/26 01:14:39;;;;;;;13.07;9.83;;;20.80;33.40;;;;;;5085667;28;20460;-64
2022/08/26 01:17:08;;;;;;;12.43;11.13;;;20.70;33.50;;;;;;5081093;28;21030;-64
2022/08/26 01:19:41;;;;;;;14.73;9.50;;;20.70;33.90;;;;;;5086922;28;20486;-63
2022/08/26 01:22:10;;;;;;;11.83;10.50;;;20.70;34.50;;;;;;5084755;28;20466;-64
2022/08/26 01:24:41;;;;;;;14.07;10.47;;;20.60;34.10;;;;;;5083095;28;20459;-64
2022/08/26 01:27:10;;;;;;;15.20;10.80;;;20.60;34.40;;;;;;5075974;28;20453;-63
2022/08/26 01:29:41;;;;;;;13.30;10.60;;;20.50;35.00;;;;;;5086084;28;20555;-63
2022/08/26 01:32:10;;;;;;;15.70;11.37;;;20.50;34.70;;;;;;5086831;28;20483;-63
2022/08/26 01:34:39;;;;;;;11.90;10.53;;;20.40;34.80;;;;;;5083867;28;20521;-63
2022/08/26 01:37:09;;;;;;;16.03;11.27;;;20.40;34.80;;;;;;5082654;28;20483;-63
2022/08/26 01:39:38;;;;;;;19.47;11.80;;;20.40;35.10;;;;;;5081470;28;20478;-63
2022/08/26 01:42:09;;;;;;;15.47;10.10;;;20.40;35.00;;;;;;5104693;28;20981;-63
2022/08/26 01:44:40;;;;;;;15.37;10.47;;;20.40;35.10;;;;;;5107713;28;20810;-63
2022/08/26 01:47:09;;;;;;;15.60;10.60;;;20.40;35.00;;;;;;5107144;28;20470;-62
2022/08/26 01:49:36;;;;;;;12.90;10.60;;;20.40;35.10;;;;;;5102455;28;20482;-63
2022/08/26 01:52:05;;;;;;;12.70;11.40;;;20.30;35.40;;;;;;5106818;28;20455;-62
2022/08/26 01:54:32;;;;;;;14.57;10.83;;;20.30;35.40;;;;;;5103161;28;20455;-63
2022/08/26 01:57:03;;;;;;;16.37;10.93;;;20.30;35.40;;;;;;5106227;28;20475;-63
2022/08/26 01:59:30;;;;;;;13.97;10.77;;;20.20;35.30;;;;;;5105665;28;20472;-63
2022/08/26 02:01:57;;;;;;;13.43;9.70;;;20.20;35.40;;;;;;5088464;28;20478;-63
2022/08/26 02:04:27;;;;;;;14.70;11.30;;;20.20;35.20;;;;;;5105328;28;20458;-63
2022/08/26 02:06:55;;;;;;;12.70;10.40;;;20.20;35.20;;;;;;5103932;27;20582;-63
2022/08/26 02:09:23;;;;;;;13.90;10.83;;;20.10;35.20;;;;;;5104852;28;20452;-63
2022/08/26 02:11:51;;;;;;;12.60;11.20;;;20.10;35.30;;;;;;5107415;28;20463;-63
2022/08/26 02:14:21;;;;;;;12.00;10.70;;;20.10;35.60;;;;;;5108644;28;20507;-63
2022/08/26 02:16:51;;;;;;;12.10;10.70;;;20.10;35.00;;;;;;5108312;28;20995;-63
2022/08/26 02:19:22;;;;;;;15.90;10.90;;;20.10;34.90;;;;;;5105164;28;20455;-63
2022/08/26 02:21:50;;;;;;;13.63;10.93;;;20.00;35.10;;;;;;5102436;27;20504;-63
2022/08/26 02:24:19;;;;;;;13.47;10.67;;;20.10;35.20;;;;;;5111836;27;20447;-63
2022/08/26 02:26:47;;;;;;;12.40;10.40;;;20.00;35.60;;;;;;5102343;27;20441;-63
2022/08/26 02:29:22;;;;;;;11.40;9.33;;;20.00;35.00;;;;;;5098792;28;20456;-63
2022/08/26 02:31:50;;;;;;;12.00;10.80;;;20.00;35.00;;;;;;5106278;28;20826;-63
2022/08/26 02:34:21;;;;;;;14.00;11.10;;;20.00;34.90;;;;;;5105710;28;20451;-63
2022/08/26 02:36:48;;;;;;;18.33;10.80;;;19.90;35.10;;;;;;5100236;27;20486;-62
2022/08/26 02:39:16;;;;;;;12.70;10.83;;;19.90;35.20;;;;;;5109947;27;20516;-62
2022/08/26 02:41:43;;;;;;;12.53;10.67;;;19.90;35.10;;;;;;5102269;27;20451;-63
2022/08/26 02:44:10;;;;;;;12.97;10.93;;;19.90;35.30;;;;;;5109038;28;20492;-63
2022/08/26 02:46:38;;;;;;;13.50;11.13;;;19.80;35.20;;;;;;5103103;27;20451;-63
2022/08/26 02:49:05;;;;;;;13.70;10.97;;;19.80;35.50;;;;;;5104885;28;20447;-63
2022/08/26 02:51:32;;;;;;;13.97;10.77;;;19.70;35.60;;;;;;5105422;27;20849;-63
2022/08/26 02:53:59;;;;;;;15.90;11.17;;;19.80;35.80;;;;;;5107405;27;20642;-63
2022/08/26 02:56:26;;;;;;;13.07;10.30;;;19.70;36.00;;;;;;5103570;28;20857;-63
2022/08/26 02:58:52;;;;;;;17.13;11.97;;;19.70;36.30;;;;;;5109374;27;20451;-62
2022/08/26 03:01:21;;;;;;;12.97;11.23;;;19.70;36.10;;;;;;5108801;28;20479;-63
2022/08/26 03:03:50;;;;;;;13.03;10.80;;;19.60;35.90;;;;;;5106113;28;20872;-63
2022/08/26 03:06:17;;;;;;;16.43;11.63;;;19.60;35.90;;;;;;5109696;27;20955;-63
2022/08/26 03:08:44;;;;;;;13.97;12.10;;;19.60;36.10;;;;;;5105560;27;20597;-62
2022/08/26 03:11:11;;;;;;;15.17;10.77;;;19.50;36.30;;;;;;5107883;28;20482;-63
2022/08/26 03:13:39;;;;;;;14.47;10.67;;;19.50;36.30;;;;;;5102934;27;20498;-62
2022/08/26 03:16:06;;;;;;;14.47;11.87;;;19.50;36.60;;;;;;5108739;27;20455;-64
2022/08/26 03:18:34;;;;;;;13.77;11.33;;;19.50;36.60;;;;;;5108109;28;20462;-63
2022/08/26 03:21:06;;;;;;;13.60;10.97;;;19.50;36.70;;;;;;5098082;28;20479;-63
2022/08/26 03:23:34;;;;;;;13.47;10.90;;;19.40;37.00;;;;;;5107049;28;20822;-63
2022/08/26 03:26:01;;;;;;;13.93;11.90;;;19.40;37.10;;;;;;5103966;28;20451;-63
2022/08/26 03:28:28;;;;;;;14.20;12.50;;;19.30;37.30;;;;;;5101346;28;20458;-64
2022/08/26 03:30:54;;;;;;;15.00;12.00;;;19.30;37.60;;;;;;5104692;27;20475;-63
2022/08/26 03:33:21;;;;;;;16.30;11.63;;;19.20;37.40;;;;;;5104209;27;20467;-64
2022/08/26 03:35:48;;;;;;;14.83;10.70;;;19.20;37.40;;;;;;5106343;27;20460;-64
2022/08/26 03:38:16;;;;;;;13.33;11.93;;;19.20;37.40;;;;;;5103376;28;20844;-64
2022/08/26 03:40:44;;;;;;;14.07;11.80;;;19.20;37.60;;;;;;5107705;27;20533;-64
2022/08/26 03:43:11;;;;;;;15.57;11.80;;;19.10;37.70;;;;;;5103605;27;20504;-63
2022/08/26 03:45:39;;;;;;;13.30;11.90;;;19.10;37.60;;;;;;5106906;27;20513;-64
2022/08/26 03:48:06;;;;;;;18.13;11.77;;;19.00;37.80;;;;;;5095797;28;20869;-62
2022/08/26 03:50:34;;;;;;;23.73;12.83;;;19.00;37.90;;;;;;5106769;28;20848;-63
2022/08/26 03:53:01;;;;;;;19.00;12.50;;;19.00;37.70;;;;;;5104205;27;20464;-63
2022/08/26 03:55:31;;;;;;;13.40;11.60;;;19.00;37.70;;;;;;5105748;28;20469;-63
2022/08/26 03:57:59;;;;;;;13.73;12.30;;;19.00;37.70;;;;;;5108315;27;21189;-63
2022/08/26 04:00:26;;;;;;;13.47;12.10;;;19.00;37.60;;;;;;5100917;27;21027;-63
2022/08/26 04:02:53;;;;;;;14.17;12.10;;;19.00;38.00;;;;;;5096925;27;20462;-63
2022/08/26 04:05:21;;;;;;;13.20;11.80;;;18.90;38.00;;;;;;5104079;27;20464;-63
2022/08/26 04:07:48;;;;;;;18.03;13.37;;;18.90;38.10;;;;;;5104336;28;20462;-64
2022/08/26 04:10:18;;;;;;;13.90;12.50;;;18.90;38.10;;;;;;5102042;27;21064;-65
2022/08/26 04:12:46;;;;;;;14.17;12.37;;;18.80;38.20;;;;;;5105603;28;20452;-63
2022/08/26 04:15:16;;;;;;;17.70;13.50;;;18.90;38.20;;;;;;5100508;28;20586;-63
2022/08/26 04:17:43;;;;;;;18.10;11.50;;;18.80;38.00;;;;;;5106597;28;20471;-62
2022/08/26 04:20:12;;;;;;;15.50;12.47;;;18.80;37.90;;;;;;5102966;27;20895;-64
2022/08/26 04:22:40;;;;;;;20.10;12.80;;;18.80;37.90;;;;;;5107843;27;20514;-64
2022/08/26 04:25:08;;;;;;;13.93;12.53;;;18.80;38.20;;;;;;5104366;28;20457;-64
2022/08/26 04:27:35;;;;;;;14.43;12.10;;;18.70;38.20;;;;;;5107186;28;20452;-63
2022/08/26 04:30:04;;;;;;;13.73;11.80;;;18.70;38.10;;;;;;5107083;28;20477;-63
2022/08/26 04:32:31;;;;;;;16.20;13.00;;;18.70;38.30;;;;;;5103964;28;20478;-63
2022/08/26 04:34:58;;;;;;;16.17;13.93;;;18.70;38.50;;;;;;5105522;28;20627;-64
2022/08/26 04:37:25;;;;;;;15.77;13.13;;;18.70;38.60;;;;;;5106179;28;20480;-63
2022/08/26 04:39:52;;;;;;;16.90;13.90;;;18.70;38.60;;;;;;5105304;27;20483;-65
2022/08/26 04:42:19;;;;;;;19.03;12.93;;;18.70;38.60;;;;;;5106635;28;20455;-62
2022/08/26 04:44:46;;;;;;;14.13;11.80;;;18.70;38.90;;;;;;5101891;28;20458;-66
2022/08/26 04:47:14;;;;;;;16.03;12.07;;;18.70;38.40;;;;;;5104256;28;20473;-66
2022/08/26 04:49:41;;;;;;;14.27;12.30;;;18.70;38.30;;;;;;5102229;28;20475;-66
2022/08/26 04:52:08;;;;;;;12.07;10.73;;;18.70;38.20;;;;;;5098723;28;20474;-63
2022/08/26 04:54:34;;;;;;;18.43;12.40;;;18.70;38.30;;;;;;5099357;28;20463;-66
2022/08/26 04:57:01;;;;;;;13.43;11.53;;;18.70;38.40;;;;;;5104966;28;20476;-65
2022/08/26 04:59:28;;;;;;;13.10;11.70;;;18.80;38.20;;;;;;5103917;28;20480;-69
2022/08/26 05:01:58;;;;;;;14.60;11.67;;;18.80;38.30;;;;;;5099052;28;20471;-67
2022/08/26 05:04:26;;;;;;;15.93;12.70;;;18.80;38.20;;;;;;5102070;28;20552;-66
2022/08/26 05:06:53;;;;;;;13.60;11.40;;;18.80;38.10;;;;;;5095822;28;20455;-67
2022/08/26 05:09:19;;;;;;;13.07;11.50;;;18.90;38.00;;;;;;5097998;28;20940;-67
2022/08/26 05:11:47;;;;;;;18.40;11.63;;;19.00;37.80;;;;;;5103888;28;20967;-67
2022/08/26 05:14:14;;;;;;;13.37;10.97;;;19.00;37.90;;;;;;5094889;28;20846;-66
2022/08/26 05:16:41;;;;;;;15.40;12.27;;;19.10;37.80;;;;;;5105246;28;20460;-66
2022/08/26 05:19:08;;;;;;;15.00;12.67;;;19.10;37.50;;;;;;5098135;28;20458;-66
2022/08/26 05:21:37;;;;;;;15.27;11.80;;;19.20;37.70;;;;;;5107330;28;21061;-66
2022/08/26 05:24:04;;;;;;;12.07;10.87;;;19.30;38.10;;;;;;5106796;28;20592;-66
2022/08/26 05:26:32;;;;;;;15.37;11.50;;;19.50;38.80;;;;;;5108144;28;20455;-68
2022/08/26 05:28:58;;;;;;;14.03;10.60;;;19.70;39.00;;;;;;5101075;28;20459;-66
2022/08/26 05:31:27;;;;;;;13.00;11.50;;;20.00;37.60;;;;;;5103897;28;20833;-67
2022/08/26 05:33:56;;;;;;;12.80;9.53;;;20.30;36.40;;;;;;5099010;28;21085;-67
2022/08/26 05:36:25;;;;;;;14.03;11.73;;;20.70;34.90;;;;;;5097643;28;21118;-67
2022/08/26 05:38:53;;;;;;;13.77;10.77;;;21.20;33.40;;;;;;5101721;28;20483;-68
2022/08/26 05:41:23;;;;;;;14.57;10.40;;;21.50;32.00;;;;;;5106422;27;20494;-66
2022/08/26 05:43:51;;;;;;;11.40;10.23;;;21.90;30.90;;;;;;5104108;28;20478;-66
2022/08/26 05:46:17;;;;;;;12.87;10.27;;;22.40;29.30;;;;;;5103090;27;20455;-67
2022/08/26 05:48:45;;;;;;;11.50;9.93;;;23.00;27.40;;;;;;5104268;28;20463;-67
2022/08/26 05:51:13;;;;;;;11.80;10.60;;;23.80;25.10;;;;;;5101040;27;20570;-67
2022/08/26 05:53:41;;;;;;;11.10;9.87;;;24.70;22.50;;;;;;5102653;27;20468;-67
2022/08/26 05:56:11;;;;;;;13.70;9.57;;;25.50;19.80;;;;;;5103954;27;20463;-68
2022/08/26 05:58:40;;;;;;;13.07;9.60;;;26.30;18.00;;;;;;5103586;28;20634;-67
2022/08/26 06:01:11;;;;;;;12.43;10.60;;;27.00;16.60;;;;;;5100056;27;20536;-68
2022/08/26 06:03:41;;;;;;;10.80;9.70;;;27.30;15.30;;;;;;5091983;27;20599;-68
2022/08/26 06:06:10;;;;;;;12.63;10.37;;;27.90;14.10;;;;;;5103078;27;20551;-69
2022/08/26 06:08:37;;;;;;;12.30;9.20;;;28.90;12.40;;;;;;5105621;28;20459;-67
2022/08/26 06:11:06;;;;;;;11.87;10.13;;;30.20;10.60;;;;;;5104096;27;20483;-66
2022/08/26 06:13:35;;;;;;;11.13;9.70;;;31.30;8.30;;;;;;5101571;27;20837;-68
2022/08/26 06:16:04;;;;;;;13.13;9.97;;;32.50;6.30;;;;;;5098992;27;20454;-65
2022/08/26 06:18:35;;;;;;;10.13;9.13;;;33.10;5.10;;;;;;5104765;28;20476;-64
2022/08/26 06:21:12;;;;;;;13.47;10.40;;;33.40;4.20;;;;;;5103106;28;20483;-63
2022/08/26 06:26:24;;;;;;;14.33;9.53;;;34.70;2.10;;;;;;5103574;27;20500;-69
2022/08/26 06:28:52;;;;;;;11.00;9.30;;;35.50;1.00;;;;;;5107913;28;20879;-73
2022/08/26 06:31:19;;;;;;;12.40;8.93;;;36.00;1.00;;;;;;5101386;27;20471;-71
2022/08/26 06:33:46;;;;;;;10.27;8.90;;;36.10;1.00;;;;;;5104961;27;20463;-74
2022/08/26 06:36:18;;;;;;;9.90;8.70;;;36.20;1.00;;;;;;5102367;27;21007;-74
2022/08/26 06:38:45;;;;;;;10.40;9.33;;;36.40;1.00;;;;;;5103874;28;20471;-68
2022/08/26 06:41:12;;;;;;;10.80;9.70;;;36.70;1.00;;;;;;5106601;28;20494;-72
2022/08/26 06:43:41;;;;;;;12.37;10.37;;;36.70;1.00;;;;;;5104340;28;20455;-70
2022/08/26 06:46:12;;;;;;;11.87;10.67;;;36.70;1.00;;;;;;5101618;28;20467;-72
2022/08/26 06:48:40;;;;;;;14.07;10.20;;;36.80;1.00;;;;;;5103207;28;20466;-73
2022/08/26 06:51:09;;;;;;;13.67;10.50;;;37.20;1.00;;;;;;5100462;28;21200;-70
2022/08/26 06:53:36;;;;;;;12.77;10.30;;;37.40;1.00;;;;;;5105213;28;20484;-70
2022/08/26 06:56:05;;;;;;;15.93;12.00;;;37.60;1.00;;;;;;5104728;27;20649;-69
2022/08/26 06:58:32;;;;;;;15.40;12.07;;;37.80;1.00;;;;;;5104279;28;20476;-70
2022/08/26 07:00:59;;;;;;;13.47;11.57;;;38.20;1.00;;;;;;5096983;27;20472;-71
2022/08/26 07:03:27;;;;;;;12.70;10.67;;;38.70;1.00;;;;;;5101335;28;20495;-71
2022/08/26 07:05:54;;;;;;;14.07;11.23;;;39.30;1.00;;;;;;5100910;27;20447;-67
2022/08/26 07:08:22;;;;;;;12.90;10.93;;;39.70;1.00;;;;;;5101707;28;22440;-66
2022/08/26 07:10:49;;;;;;;13.30;11.13;;;40.30;1.00;;;;;;5104662;28;20476;-65
2022/08/26 07:13:17;;;;;;;15.33;10.53;;;41.30;1.00;;;;;;5103976;27;20454;-70
2022/08/26 07:15:43;;;;;;;12.73;9.70;;;42.30;1.00;;;;;;5108208;28;20467;-66
2022/08/26 07:18:10;;;;;;;12.37;8.60;;;42.90;1.00;;;;;;5104862;28;20483;-69
2022/08/26 07:20:40;;;;;;;11.77;9.20;;;43.60;1.00;;;;;;5106175;28;20475;-68
2022/08/26 07:23:07;;;;;;;12.33;10.70;;;44.30;1.00;;;;;;5104294;28;20877;-66
2022/08/26 07:25:34;;;;;;;12.60;10.57;;;45.00;1.00;;;;;;5102193;28;20966;-67
2022/08/26 07:28:01;;;;;;;15.53;11.10;;;45.60;1.00;;;;;;5100657;27;20463;-68
2022/08/26 07:30:28;;;;;;;11.77;9.40;;;46.20;1.00;;;;;;5104831;27;20479;-65
2022/08/26 07:32:57;;;;;;;12.23;11.03;;;46.80;1.00;;;;;;5104774;28;20646;-65
2022/08/26 07:35:24;;;;;;;16.83;11.43;;;47.60;1.00;;;;;;5100246;28;20451;-67
2022/08/26 07:37:52;;;;;;;11.53;10.40;;;48.10;1.00;;;;;;5098544;28;20476;-66
2022/08/26 07:40:20;;;;;;;17.90;11.93;;;48.70;1.00;;;;;;5103045;28;20575;-66
2022/08/26 07:42:47;;;;;;;14.37;11.27;;;49.20;1.00;;;;;;5098506;27;20836;-68
2022/08/26 07:45:14;;;;;;;14.73;9.70;;;49.70;1.00;;;;;;5100841;28;20467;-68
2022/08/26 07:47:41;;;;;;;13.83;11.40;;;50.10;1.00;;;;;;5105365;28;20977;-66
2022/08/26 07:50:08;;;;;;;11.93;10.30;;;50.60;1.00;;;;;;5103995;28;20471;-65
2022/08/26 07:52:37;;;;;;;11.83;10.63;;;51.00;1.00;;;;;;5102919;28;20464;-66
2022/08/26 07:55:07;;;;;;;13.57;11.17;;;51.50;1.00;;;;;;5105231;28;20504;-66
2022/08/26 07:57:34;;;;;;;14.13;12.73;;;51.80;1.00;;;;;;5098395;22;20484;-61
2022/08/26 08:00:02;;;;;;;17.90;11.77;;;51.80;1.00;;;;;;5079094;28;20475;-61
2022/08/26 08:02:30;;;;;;;14.23;12.83;;;51.90;1.00;;;;;;5078662;28;20471;-61
2022/08/26 08:04:57;;;;;;;12.10;11.00;;;52.50;1.00;;;;;;5063383;28;20473;-61
2022/08/26 08:07:24;;;;;;;14.87;12.43;;;52.80;1.00;;;;;;5058611;28;20548;-61
2022/08/26 08:09:51;;;;;;;14.07;12.43;;;53.10;1.00;;;;;;5061246;28;20456;-61
2022/08/26 08:12:20;;;;;;;13.67;12.37;;;52.90;1.00;;;;;;5061193;28;20839;-61
2022/08/26 08:14:47;;;;;;;13.50;12.10;;;52.90;1.00;;;;;;5060704;28;20573;-62
2022/08/26 08:17:15;;;;;;;17.77;11.80;;;52.80;1.00;;;;;;5063527;28;20465;-62
2022/08/26 08:19:42;;;;;;;12.77;11.47;;;53.20;1.00;;;;;;5056085;28;20561;-62
2022/08/26 08:22:09;;;;;;;13.23;11.83;;;53.60;1.00;;;;;;5063537;28;20860;-61
2022/08/26 08:24:38;;;;;;;16.43;11.50;;;53.80;1.00;;;;;;5062722;28;20508;-62
2022/08/26 08:27:05;;;;;;;17.33;11.33;;;53.70;1.00;;;;;;5053957;28;20587;-62
2022/08/26 08:29:36;;;;;;;12.97;11.53;;;53.20;1.00;;;;;;5063045;28;20453;-62
2022/08/26 08:32:04;;;;;;;15.03;12.20;;;52.30;1.00;;;;;;5059471;28;20511;-62
2022/08/26 08:34:31;;;;;;;16.40;11.10;;;51.50;1.00;;;;;;5055538;28;20567;-60
2022/08/26 08:36:59;;;;;;;14.63;10.43;;;51.20;1.00;;;;;;5058826;28;20461;-60
2022/08/26 08:39:26;;;;;;;15.73;11.13;;;51.90;1.00;;;;;;5061231;28;20486;-62
2022/08/26 08:42:23;;;;;;;14.33;10.70;;;52.70;1.00;;;;;;5058474;28;20552;-61
2022/08/26 08:44:53;;;;;;;14.40;9.90;;;53.60;1.00;;;;;;5058618;28;20549;-61
2022/08/26 08:47:30;;;;;;;12.43;9.80;;;53.60;1.00;;;;;;5064057;28;20576;-61
2022/08/26 08:50:06;;;;;;;12.23;10.27;;;52.00;1.00;;;;;;5059309;28;20456;-61
2022/08/26 08:52:35;;;;;;;15.30;10.30;;;50.50;1.00;;;;;;5064608;28;20464;-65
2022/08/26 08:55:04;;;;;;;15.50;11.30;;;49.70;1.00;;;;;;5062765;28;20534;-65
2022/08/26 08:57:40;;;;;;;14.57;10.20;;;48.50;1.00;;;;;;5061594;28;21034;-66
2022/08/26 09:00:15;;;;;;;18.67;12.37;;;48.40;1.00;;;;;;5060039;28;20487;-65
2022/08/26 09:02:50;;;;;;;17.93;11.33;;;49.70;1.00;;;;;;5041359;28;21040;-65
2022/08/26 09:05:21;;;;;;;14.63;10.40;;;51.10;1.00;;;;;;5044840;28;20481;-65
2022/08/26 09:07:53;;;;;;;11.90;7.97;;;52.10;1.00;;;;;;5038475;28;20539;-64
2022/08/26 09:10:32;;;;;;;13.57;10.27;;;52.60;1.00;;;;;;5039343;28;20457;-67
2022/08/26 09:13:00;;;;;;;13.43;10.17;;;53.50;1.00;;;;;;5041905;28;20449;-65
2022/08/26 09:15:36;;;;;;;12.80;10.40;;;53.60;1.00;;;;;;5045855;28;20477;-65
2022/08/26 09:18:10;;;;;;;13.10;10.30;;;54.10;1.00;;;;;;5042205;28;20449;-65
2022/08/26 09:20:46;;;;;;;13.70;9.10;;;53.80;1.00;;;;;;5048048;28;20450;-65
2022/08/26 09:23:13;;;;;;;10.37;8.50;;;53.80;1.00;;;;;;5039991;28;20957;-66
2022/08/26 09:25:47;;;;;;;16.97;9.13;;;53.70;1.00;;;;;;5042819;28;20544;-63
2022/08/26 09:28:18;;;;;;;10.60;9.50;;;54.30;1.00;;;;;;5047419;28;20484;-64
2022/08/26 09:30:57;;;;;;;12.73;8.87;;;54.30;1.00;;;;;;5056732;28;20502;-65
2022/08/26 09:33:29;;;;;;;11.40;9.57;;;52.90;1.00;;;;;;5059349;28;20457;-63
2022/08/26 09:36:14;;;;;;;12.67;8.27;;;52.90;1.00;;;;;;5060591;28;21223;-63
2022/08/26 09:38:41;;;;;;;11.23;8.30;;;53.50;1.00;;;;;;5070923;28;20500;-65
2022/08/26 09:41:22;;;;;;;11.77;8.50;;;54.20;1.00;;;;;;5059218;28;20842;-64
2022/08/26 09:44:09;;;;;;;10.77;7.83;;;54.90;1.00;;;;;;5063607;28;20476;-65
2022/08/26 09:46:39;;;;;;;13.97;9.20;;;54.50;1.00;;;;;;5065643;28;20482;-64
2022/08/26 09:49:24;;;;;;;13.43;7.67;;;53.80;1.00;;;;;;5069284;28;20459;-66
2022/08/26 09:52:10;;;;;;;11.70;7.60;;;54.40;1.00;;;;;;5063137;28;20475;-65
2022/08/26 09:54:38;;;;;;;12.67;7.83;;;54.80;1.00;;;;;;5065298;28;20521;-65
2022/08/26 09:57:20;;;;;;;11.97;8.80;;;55.20;1.00;;;;;;5067708;28;20561;-65
2022/08/26 09:59:48;;;;;;;10.93;8.23;;;55.00;1.00;;;;;;5078392;28;20561;-65
2022/08/26 10:02:35;;;;;;;12.60;6.90;;;54.90;1.00;;;;;;5070275;28;20461;-64
2022/08/26 10:05:06;;;;;;;10.70;7.03;;;54.40;1.00;;;;;;5061995;28;20479;-66
2022/08/26 10:07:47;;;;;;;9.80;7.20;;;53.80;1.00;;;;;;5061561;28;20453;-65
2022/08/26 10:10:20;;;;;;;10.40;6.20;;;54.00;1.00;;;;;;5062082;28;20452;-63
2022/08/26 10:13:03;;;;;;;12.60;7.23;;;54.80;1.00;;;;;;5063760;28;20529;-64
2022/08/26 10:15:39;;;;;;;11.20;7.60;;;55.40;1.00;;;;;;5067567;28;20468;-63
2022/08/26 10:18:13;;;;;;;11.33;6.53;;;55.20;1.00;;;;;;5057636;28;20505;-63
2022/08/26 10:20:51;;;;;;;11.07;6.83;;;54.50;1.00;;;;;;5070084;28;20484;-64
2022/08/26 10:23:23;;;;;;;10.43;6.77;;;54.60;1.00;;;;;;5065701;28;20454;-66
2022/08/26 10:25:55;;;;;;;10.73;6.70;;;54.60;1.00;;;;;;5055808;28;20448;-66
2022/08/26 10:28:31;;;;;;;10.40;6.00;;;55.00;1.00;;;;;;5067205;28;20453;-64
2022/08/26 10:31:03;;;;;;;10.80;6.73;;;55.30;1.00;;;;;;5063596;28;20480;-63
2022/08/26 10:33:31;;;;;;;10.70;6.07;;;55.90;1.00;;;;;;5059862;28;20957;-65
2022/08/26 10:36:02;;;;;;;8.83;6.80;;;56.30;1.00;;;;;;5065041;28;20464;-65
2022/08/26 10:38:33;;;;;;;9.30;6.40;;;56.20;1.00;;;;;;5065489;28;20457;-64
2022/08/26 10:41:04;;;;;;;11.17;6.47;;;56.00;1.00;;;;;;5063231;28;20453;-65
2022/08/26 10:43:36;;;;;;;10.50;6.20;;;55.50;1.00;;;;;;5065041;28;20496;-66
2022/08/26 10:46:06;;;;;;;10.93;6.70;;;54.80;1.00;;;;;;5068788;28;20453;-64
2022/08/26 10:48:43;;;;;;;8.40;6.00;;;54.40;1.00;;;;;;5070370;28;20452;-65
2022/08/26 10:51:12;;;;;;;11.80;6.23;;;53.90;1.00;;;;;;5065138;28;20448;-65
2022/08/26 10:53:47;;;;;;;12.73;5.67;;;52.50;1.00;;;;;;5059050;28;20484;-66
2022/08/26 10:56:27;;;;;;;12.63;5.73;;;51.00;1.00;;;;;;5067010;28;20452;-63
2022/08/26 10:59:04;;;;;;;13.50;6.77;;;49.10;1.00;;;;;;5060414;28;21012;-64
2022/08/26 11:01:45;;;;;;;18.73;7.27;;;47.60;1.00;;;;;;5068201;28;20483;-66
2022/08/26 11:04:40;;;;;;;14.37;6.07;;;46.20;1.00;;;;;;5054319;28;20543;-63
2022/08/26 11:07:32;;;;;;;10.47;7.20;;;45.00;1.00;;;;;;5061003;28;20985;-64
2022/08/26 11:10:01;;;;;;;11.57;7.03;;;43.30;1.00;;;;;;5060608;28;20949;-63
2022/08/26 11:12:52;;;;;;;10.87;7.63;;;42.30;1.00;;;;;;5060936;28;20462;-64
2022/08/26 11:16:10;;;;;;;12.20;6.80;;;41.30;1.00;;;;;;5068854;28;20484;-64
2022/08/26 11:18:40;;;;;;;12.63;7.70;;;40.20;1.00;;;;;;5051209;28;20457;-66
2022/08/26 11:21:46;;;;;;;11.03;7.40;;;39.30;1.00;;;;;;5067830;28;20547;-67
2022/08/26 11:24:59;;;;;;;10.53;7.57;;;38.50;1.00;;;;;;5060100;28;20470;-61
2022/08/26 11:27:53;;;;;;;11.87;7.87;;;37.70;1.00;;;;;;5057570;28;21033;-60
2022/08/26 11:30:48;;;;;;;12.13;8.20;;;36.90;1.00;;;;;;5060791;28;20530;-61
2022/08/26 11:33:49;;;;;;;15.60;7.80;;;36.40;1.00;;;;;;5068332;28;20465;-61
2022/08/26 11:36:52;;;;;;;15.60;7.30;;;35.80;1.00;;;;;;5063421;28;20457;-59
2022/08/26 11:39:28;;;;;;;13.33;7.60;;;35.30;1.00;;;;;;5046975;28;20508;-60
2022/08/26 11:42:00;;;;;;;11.53;7.27;;;35.20;1.00;;;;;;5059461;28;20823;-60
2022/08/26 11:44:36;;;;;;;13.50;7.80;;;35.00;1.00;;;;;;5058393;28;20489;-60
2022/08/26 11:47:03;;;;;;;14.80;7.47;;;34.70;1.00;;;;;;5069295;28;20448;-61
2022/08/26 11:49:32;;;;;;;10.67;7.43;;;34.30;1.00;;;;;;5057452;28;20511;-60
2022/08/26 11:52:11;;;;;;;19.47;7.67;;;33.90;1.00;;;;;;5060889;28;20464;-60
2022/08/26 11:54:39;;;;;;;11.27;7.00;;;33.70;1.30;;;;;;5058434;28;20910;-60
2022/08/26 11:57:12;;;;;;;15.40;7.17;;;33.50;1.10;;;;;;5063938;28;20814;-60
2022/08/26 11:59:42;;;;;;;15.03;7.97;;;33.30;1.60;;;;;;5064442;28;21825;-61
2022/08/26 12:02:15;;;;;;;12.80;7.80;;;33.10;2.10;;;;;;5063585;28;20480;-64
2022/08/26 12:04:46;;;;;;;14.47;7.67;;;32.80;1.80;;;;;;5062470;28;20477;-64
2022/08/26 12:07:13;;;;;;;10.70;6.87;;;32.60;2.30;;;;;;5062055;28;20459;-64
2022/08/26 12:09:54;;;;;;;12.47;8.40;;;32.30;2.70;;;;;;5059833;28;20461;-67
2022/08/26 12:12:26;;;;;;;14.37;8.37;;;32.20;3.10;;;;;;5058792;28;20495;-64
2022/08/26 12:15:13;;;;;;;11.53;6.80;;;32.00;3.00;;;;;;5058046;28;20480;-65
2022/08/26 12:17:42;;;;;;;18.07;8.50;;;31.90;3.20;;;;;;5060450;28;20461;-64
2022/08/26 12:20:29;;;;;;;14.23;7.20;;;31.90;3.30;;;;;;5057117;28;20493;-63
2022/08/26 12:22:59;;;;;;;12.60;7.40;;;31.70;3.70;;;;;;5059840;28;21221;-64
2022/08/26 12:25:26;;;;;;;12.40;7.90;;;31.60;3.80;;;;;;5063586;28;20486;-69
2022/08/26 12:28:03;;;;;;;20.23;8.40;;;31.40;4.30;;;;;;5062599;28;20559;-65
2022/08/26 12:30:30;;;;;;;10.27;8.23;;;31.30;4.70;;;;;;5064498;28;20509;-65
2022/08/26 12:33:07;;;;;;;12.00;8.80;;;31.20;5.10;;;;;;5057826;28;20466;-65
2022/08/26 12:35:35;;;;;;;11.43;7.43;;;31.10;6.40;;;;;;5061156;28;20572;-65
2022/08/26 12:38:03;;;;;;;13.20;7.90;;;31.10;7.10;;;;;;5055876;28;20544;-65
2022/08/26 12:40:38;;;;;;;12.03;6.63;;;31.10;6.90;;;;;;5055703;28;20470;-68
2022/08/26 12:43:08;;;;;;;12.43;8.10;;;31.10;6.80;;;;;;5062078;28;20640;-67
2022/08/26 12:45:37;;;;;;;13.83;7.77;;;31.10;7.50;;;;;;5055744;28;20587;-66
2022/08/26 12:48:09;;;;;;;11.63;7.60;;;31.20;7.70;;;;;;5061124;28;20462;-64
2022/08/26 12:50:38;;;;;;;12.50;8.20;;;31.20;8.00;;;;;;5058117;28;20473;-63
2022/08/26 12:53:21;;;;;;;14.77;8.10;;;31.30;8.80;;;;;;5059192;28;20531;-66
2022/08/26 12:55:51;;;;;;;12.90;8.10;;;31.30;8.10;;;;;;5061299;28;20491;-63